sensor_id;sensor_type;location;lat;lon;timestamp;temperature;humidity
20610;DHT22;10463;52.378;9.688;2022-12-18T00:02:27;19.20;20.70
20610;DHT22;10463;52.378;9.688;2022-12-18T00:05:12;19.20;20.70
20610;DHT22;10463;52.378;9.688;2022-12-18T00:07:56;19.30;20.70
20610;DHT22;10463;52.378;9.688;2022-12-18T00:10:43;19.20;20.70
20610;DHT22;10463;52.378;9.688;2022-12-18T00:13:28;19.30;20.80
20610;DHT22;10463;52.378;9.688;2022-12-18T00:16:15;19.20;20.90
20610;DHT22;10463;52.378;9.688;2022-12-18T00:19:00;19.20;21.00
20610;DHT22;10463;52.378;9.688;2022-12-18T00:21:45;19.20;21.00
20610;DHT22;10463;52.378;9.688;2022-12-18T00:24:30;19.20;21.10
20610;DHT22;10463;52.378;9.688;2022-12-18T00:27:17;19.20;21.10
20610;DHT22;10463;52.378;9.688;2022-12-18T00:30:02;19.30;21.20
20610;DHT22;10463;52.378;9.688;2022-12-18T00:32:46;19.20;21.20
20610;DHT22;10463;52.378;9.688;2022-12-18T00:35:32;19.30;21.30
20610;DHT22;10463;52.378;9.688;2022-12-18T00:38:16;19.30;21.30
20610;DHT22;10463;52.378;9.688;2022-12-18T00:41:03;19.30;21.30
20610;DHT22;10463;52.378;9.688;2022-12-18T00:43:49;19.30;21.30
20610;DHT22;10463;52.378;9.688;2022-12-18T00:46:34;19.30;21.30
20610;DHT22;10463;52.378;9.688;2022-12-18T00:49:20;19.30;21.30
20610;DHT22;10463;52.378;9.688;2022-12-18T00:52:05;19.30;21.30
20610;DHT22;10463;52.378;9.688;2022-12-18T00:54:49;19.30;21.30
20610;DHT22;10463;52.378;9.688;2022-12-18T00:57:34;19.30;21.30
20610;DHT22;10463;52.378;9.688;2022-12-18T01:00:21;19.30;21.20
20610;DHT22;10463;52.378;9.688;2022-12-18T01:03:06;19.30;21.30
20610;DHT22;10463;52.378;9.688;2022-12-18T01:05:51;19.30;21.30
20610;DHT22;10463;52.378;9.688;2022-12-18T01:08:36;19.30;21.20
20610;DHT22;10463;52.378;9.688;2022-12-18T01:11:22;19.30;21.10
20610;DHT22;10463;52.378;9.688;2022-12-18T01:14:06;19.30;21.00
20610;DHT22;10463;52.378;9.688;2022-12-18T01:16:52;19.30;21.00
20610;DHT22;10463;52.378;9.688;2022-12-18T01:19:37;19.30;21.50
20610;DHT22;10463;52.378;9.688;2022-12-18T01:22:22;19.30;20.90
20610;DHT22;10463;52.378;9.688;2022-12-18T01:25:07;19.30;20.90
20610;DHT22;10463;52.378;9.688;2022-12-18T01:27:52;19.30;20.90
20610;DHT22;10463;52.378;9.688;2022-12-18T01:30:37;19.30;20.80
20610;DHT22;10463;52.378;9.688;2022-12-18T01:33:23;19.30;20.80
20610;DHT22;10463;52.378;9.688;2022-12-18T01:36:15;19.30;20.80
20610;DHT22;10463;52.378;9.688;2022-12-18T01:39:03;19.30;20.80
20610;DHT22;10463;52.378;9.688;2022-12-18T01:41:48;19.30;20.80
20610;DHT22;10463;52.378;9.688;2022-12-18T01:45:25;19.30;20.80
20610;DHT22;10463;52.378;9.688;2022-12-18T01:48:11;19.30;20.80
20610;DHT22;10463;52.378;9.688;2022-12-18T01:51:00;19.30;20.80
20610;DHT22;10463;52.378;9.688;2022-12-18T01:53:47;19.30;20.80
20610;DHT22;10463;52.378;9.688;2022-12-18T01:56:32;19.30;20.90
20610;DHT22;10463;52.378;9.688;2022-12-18T01:59:16;19.20;21.00
20610;DHT22;10463;52.378;9.688;2022-12-18T02:02:02;19.20;21.00
20610;DHT22;10463;52.378;9.688;2022-12-18T02:04:47;19.20;21.00
20610;DHT22;10463;52.378;9.688;2022-12-18T02:07:44;19.20;20.90
20610;DHT22;10463;52.378;9.688;2022-12-18T02:10:41;19.20;20.60
20610;DHT22;10463;52.378;9.688;2022-12-18T02:13:35;19.10;20.30
20610;DHT22;10463;52.378;9.688;2022-12-18T02:16:25;19.10;20.30
20610;DHT22;10463;52.378;9.688;2022-12-18T02:19:32;19.00;20.00
20610;DHT22;10463;52.378;9.688;2022-12-18T02:22:28;19.00;19.90
20610;DHT22;10463;52.378;9.688;2022-12-18T02:25:28;18.90;19.60
20610;DHT22;10463;52.378;9.688;2022-12-18T02:28:20;18.90;19.40
20610;DHT22;10463;52.378;9.688;2022-12-18T02:31:09;18.80;19.20
20610;DHT22;10463;52.378;9.688;2022-12-18T02:34:02;18.70;19.10
20610;DHT22;10463;52.378;9.688;2022-12-18T02:36:51;18.60;18.70
20610;DHT22;10463;52.378;9.688;2022-12-18T02:39:41;18.50;18.30
20610;DHT22;10463;52.378;9.688;2022-12-18T02:42:29;18.40;18.10
20610;DHT22;10463;52.378;9.688;2022-12-18T02:45:16;18.30;18.20
20610;DHT22;10463;52.378;9.688;2022-12-18T02:48:01;18.30;18.20
20610;DHT22;10463;52.378;9.688;2022-12-18T02:50:55;18.20;18.10
20610;DHT22;10463;52.378;9.688;2022-12-18T02:53:45;18.10;18.00
20610;DHT22;10463;52.378;9.688;2022-12-18T02:56:38;18.00;17.90
20610;DHT22;10463;52.378;9.688;2022-12-18T02:59:30;18.00;18.00
20610;DHT22;10463;52.378;9.688;2022-12-18T03:02:26;17.90;17.90
20610;DHT22;10463;52.378;9.688;2022-12-18T03:05:16;17.90;17.90
20610;DHT22;10463;52.378;9.688;2022-12-18T03:08:07;17.80;17.80
20610;DHT22;10463;52.378;9.688;2022-12-18T03:11:00;17.70;17.80
20610;DHT22;10463;52.378;9.688;2022-12-18T03:13:52;17.60;17.60
20610;DHT22;10463;52.378;9.688;2022-12-18T03:16:41;17.50;17.60
20610;DHT22;10463;52.378;9.688;2022-12-18T03:19:32;17.50;17.60
20610;DHT22;10463;52.378;9.688;2022-12-18T03:22:20;17.40;17.50
20610;DHT22;10463;52.378;9.688;2022-12-18T03:25:12;17.30;17.50
20610;DHT22;10463;52.378;9.688;2022-12-18T03:28:01;17.30;17.50
20610;DHT22;10463;52.378;9.688;2022-12-18T03:30:51;17.20;17.40
20610;DHT22;10463;52.378;9.688;2022-12-18T03:33:40;17.10;17.30
20610;DHT22;10463;52.378;9.688;2022-12-18T03:36:29;17.10;18.00
20610;DHT22;10463;52.378;9.688;2022-12-18T03:39:14;17.00;17.40
20610;DHT22;10463;52.378;9.688;2022-12-18T03:42:06;17.00;17.60
20610;DHT22;10463;52.378;9.688;2022-12-18T03:45:06;16.90;17.70
20610;DHT22;10463;52.378;9.688;2022-12-18T03:48:00;16.90;17.80
20610;DHT22;10463;52.378;9.688;2022-12-18T03:50:56;16.80;17.70
20610;DHT22;10463;52.378;9.688;2022-12-18T03:53:49;16.80;17.80
20610;DHT22;10463;52.378;9.688;2022-12-18T03:56:45;16.80;17.80
20610;DHT22;10463;52.378;9.688;2022-12-18T03:59:31;16.70;17.80
20610;DHT22;10463;52.378;9.688;2022-12-18T04:02:18;16.70;18.40
20610;DHT22;10463;52.378;9.688;2022-12-18T04:05:06;16.70;18.00
20610;DHT22;10463;52.378;9.688;2022-12-18T04:07:56;16.70;18.10
20610;DHT22;10463;52.378;9.688;2022-12-18T04:10:43;16.70;18.20
20610;DHT22;10463;52.378;9.688;2022-12-18T04:13:32;16.70;18.30
20610;DHT22;10463;52.378;9.688;2022-12-18T04:16:20;16.80;18.40
20610;DHT22;10463;52.378;9.688;2022-12-18T04:19:08;16.80;18.50
20610;DHT22;10463;52.378;9.688;2022-12-18T04:21:57;16.80;18.50
20610;DHT22;10463;52.378;9.688;2022-12-18T04:24:42;16.80;18.60
20610;DHT22;10463;52.378;9.688;2022-12-18T04:27:35;16.90;18.70
20610;DHT22;10463;52.378;9.688;2022-12-18T04:30:20;16.90;18.80
20610;DHT22;10463;52.378;9.688;2022-12-18T04:33:09;16.90;18.80
20610;DHT22;10463;52.378;9.688;2022-12-18T04:35:55;17.00;18.90
20610;DHT22;10463;52.378;9.688;2022-12-18T04:38:40;17.00;18.90
20610;DHT22;10463;52.378;9.688;2022-12-18T04:41:29;17.00;19.00
20610;DHT22;10463;52.378;9.688;2022-12-18T04:44:15;17.00;19.00
20610;DHT22;10463;52.378;9.688;2022-12-18T04:47:00;17.00;19.00
20610;DHT22;10463;52.378;9.688;2022-12-18T04:49:45;17.10;19.10
20610;DHT22;10463;52.378;9.688;2022-12-18T04:52:29;17.10;19.60
20610;DHT22;10463;52.378;9.688;2022-12-18T04:55:16;17.10;19.20
20610;DHT22;10463;52.378;9.688;2022-12-18T04:58:00;17.10;19.20
20610;DHT22;10463;52.378;9.688;2022-12-18T05:00:46;17.10;19.20
20610;DHT22;10463;52.378;9.688;2022-12-18T05:03:31;17.20;19.80
20610;DHT22;10463;52.378;9.688;2022-12-18T05:06:16;17.20;19.30
20610;DHT22;10463;52.378;9.688;2022-12-18T05:09:01;17.20;19.30
20610;DHT22;10463;52.378;9.688;2022-12-18T05:11:45;17.20;19.30
20610;DHT22;10463;52.378;9.688;2022-12-18T05:14:31;17.20;19.40
20610;DHT22;10463;52.378;9.688;2022-12-18T05:17:17;17.20;19.90
20610;DHT22;10463;52.378;9.688;2022-12-18T05:20:03;17.20;19.40
20610;DHT22;10463;52.378;9.688;2022-12-18T05:22:47;17.30;19.50
20610;DHT22;10463;52.378;9.688;2022-12-18T05:25:32;17.30;19.50
20610;DHT22;10463;52.378;9.688;2022-12-18T05:28:17;17.30;19.50
20610;DHT22;10463;52.378;9.688;2022-12-18T05:31:04;17.30;20.10
20610;DHT22;10463;52.378;9.688;2022-12-18T05:33:50;17.30;19.50
20610;DHT22;10463;52.378;9.688;2022-12-18T05:36:35;17.30;19.50
20610;DHT22;10463;52.378;9.688;2022-12-18T05:39:20;17.30;19.50
20610;DHT22;10463;52.378;9.688;2022-12-18T05:42:05;17.40;19.60
20610;DHT22;10463;52.378;9.688;2022-12-18T05:44:49;17.40;19.60
20610;DHT22;10463;52.378;9.688;2022-12-18T05:47:35;17.40;20.20
20610;DHT22;10463;52.378;9.688;2022-12-18T05:50:21;17.40;19.90
20610;DHT22;10463;52.378;9.688;2022-12-18T05:53:06;17.40;19.60
20610;DHT22;10463;52.378;9.688;2022-12-18T05:55:51;17.40;19.60
20610;DHT22;10463;52.378;9.688;2022-12-18T05:58:36;17.50;19.70
20610;DHT22;10463;52.378;9.688;2022-12-18T06:01:24;17.50;20.00
20610;DHT22;10463;52.378;9.688;2022-12-18T06:04:09;17.50;19.70
20610;DHT22;10463;52.378;9.688;2022-12-18T06:06:55;17.50;19.80
20610;DHT22;10463;52.378;9.688;2022-12-18T06:09:40;17.50;19.80
20610;DHT22;10463;52.378;9.688;2022-12-18T06:12:24;17.50;19.80
20610;DHT22;10463;52.378;9.688;2022-12-18T06:15:09;17.50;19.80
20610;DHT22;10463;52.378;9.688;2022-12-18T06:17:54;17.50;19.80
20610;DHT22;10463;52.378;9.688;2022-12-18T06:20:39;17.50;19.80
20610;DHT22;10463;52.378;9.688;2022-12-18T06:23:26;17.60;19.90
20610;DHT22;10463;52.378;9.688;2022-12-18T06:26:13;17.60;19.90
20610;DHT22;10463;52.378;9.688;2022-12-18T06:28:58;17.60;19.90
20610;DHT22;10463;52.378;9.688;2022-12-18T06:31:43;17.60;19.90
20610;DHT22;10463;52.378;9.688;2022-12-18T06:34:27;17.60;19.90
20610;DHT22;10463;52.378;9.688;2022-12-18T06:37:12;17.60;19.90
20610;DHT22;10463;52.378;9.688;2022-12-18T06:39:58;17.60;20.40
20610;DHT22;10463;52.378;9.688;2022-12-18T06:42:43;17.60;20.00
20610;DHT22;10463;52.378;9.688;2022-12-18T06:45:28;17.60;20.00
20610;DHT22;10463;52.378;9.688;2022-12-18T06:48:12;17.60;19.90
20610;DHT22;10463;52.378;9.688;2022-12-18T06:50:57;17.60;20.00
20610;DHT22;10463;52.378;9.688;2022-12-18T06:53:42;17.60;20.00
20610;DHT22;10463;52.378;9.688;2022-12-18T06:56:28;17.60;19.90
20610;DHT22;10463;52.378;9.688;2022-12-18T06:59:13;17.70;20.00
20610;DHT22;10463;52.378;9.688;2022-12-18T07:01:58;17.70;20.00
20610;DHT22;10463;52.378;9.688;2022-12-18T07:04:43;17.70;20.00
20610;DHT22;10463;52.378;9.688;2022-12-18T07:07:28;17.70;20.00
20610;DHT22;10463;52.378;9.688;2022-12-18T07:10:13;17.70;20.00
20610;DHT22;10463;52.378;9.688;2022-12-18T07:12:59;17.70;20.00
20610;DHT22;10463;52.378;9.688;2022-12-18T07:15:43;17.70;20.00
20610;DHT22;10463;52.378;9.688;2022-12-18T07:18:28;17.70;20.00
20610;DHT22;10463;52.378;9.688;2022-12-18T07:21:16;17.70;20.00
20610;DHT22;10463;52.378;9.688;2022-12-18T07:24:00;17.70;20.00
20610;DHT22;10463;52.378;9.688;2022-12-18T07:26:46;17.70;20.00
20610;DHT22;10463;52.378;9.688;2022-12-18T07:29:31;17.70;20.00
20610;DHT22;10463;52.378;9.688;2022-12-18T07:32:16;17.70;20.00
20610;DHT22;10463;52.378;9.688;2022-12-18T07:35:01;17.70;20.00
20610;DHT22;10463;52.378;9.688;2022-12-18T07:37:45;17.70;20.10
20610;DHT22;10463;52.378;9.688;2022-12-18T07:40:30;17.70;20.10
20610;DHT22;10463;52.378;9.688;2022-12-18T07:43:14;17.70;20.10
20610;DHT22;10463;52.378;9.688;2022-12-18T07:46:00;17.70;20.10
20610;DHT22;10463;52.378;9.688;2022-12-18T07:48:45;17.70;20.10
20610;DHT22;10463;52.378;9.688;2022-12-18T07:51:30;17.70;20.10
20610;DHT22;10463;52.378;9.688;2022-12-18T07:54:15;17.70;20.10
20610;DHT22;10463;52.378;9.688;2022-12-18T07:57:00;17.70;20.10
20610;DHT22;10463;52.378;9.688;2022-12-18T07:59:44;17.70;20.10
20610;DHT22;10463;52.378;9.688;2022-12-18T08:02:32;17.70;20.10
20610;DHT22;10463;52.378;9.688;2022-12-18T08:05:17;17.70;20.10
20610;DHT22;10463;52.378;9.688;2022-12-18T08:08:01;17.70;20.10
20610;DHT22;10463;52.378;9.688;2022-12-18T08:10:46;17.70;20.20
20610;DHT22;10463;52.378;9.688;2022-12-18T08:13:31;17.80;20.20
20610;DHT22;10463;52.378;9.688;2022-12-18T08:16:17;17.80;20.30
20610;DHT22;10463;52.378;9.688;2022-12-18T08:19:03;17.80;20.20
20610;DHT22;10463;52.378;9.688;2022-12-18T08:21:48;17.80;20.30
20610;DHT22;10463;52.378;9.688;2022-12-18T08:24:32;17.80;20.20
20610;DHT22;10463;52.378;9.688;2022-12-18T08:27:17;17.80;20.20
20610;DHT22;10463;52.378;9.688;2022-12-18T08:30:03;17.80;20.20
20610;DHT22;10463;52.378;9.688;2022-12-18T08:32:51;17.80;20.30
20610;DHT22;10463;52.378;9.688;2022-12-18T08:35:38;17.80;20.30
20610;DHT22;10463;52.378;9.688;2022-12-18T08:38:23;17.80;20.00
20610;DHT22;10463;52.378;9.688;2022-12-18T08:41:10;17.70;18.60
20610;DHT22;10463;52.378;9.688;2022-12-18T08:43:55;17.60;17.40
20610;DHT22;10463;52.378;9.688;2022-12-18T08:46:59;17.50;18.00
20610;DHT22;10463;52.378;9.688;2022-12-18T08:49:43;17.40;19.10
20610;DHT22;10463;52.378;9.688;2022-12-18T08:52:31;17.30;18.90
20610;DHT22;10463;52.378;9.688;2022-12-18T08:55:16;17.30;19.10
20610;DHT22;10463;52.378;9.688;2022-12-18T08:58:01;17.30;19.30
20610;DHT22;10463;52.378;9.688;2022-12-18T09:00:46;17.30;19.50
20610;DHT22;10463;52.378;9.688;2022-12-18T09:03:31;17.30;19.70
20610;DHT22;10463;52.378;9.688;2022-12-18T09:06:17;17.30;19.80
20610;DHT22;10463;52.378;9.688;2022-12-18T09:09:04;17.30;19.90
20610;DHT22;10463;52.378;9.688;2022-12-18T09:11:49;17.40;20.10
20610;DHT22;10463;52.378;9.688;2022-12-18T09:14:34;17.40;20.10
20610;DHT22;10463;52.378;9.688;2022-12-18T09:17:18;17.50;20.20
20610;DHT22;10463;52.378;9.688;2022-12-18T09:20:04;17.50;20.30
20610;DHT22;10463;52.378;9.688;2022-12-18T09:22:49;17.50;20.30
20610;DHT22;10463;52.378;9.688;2022-12-18T09:25:35;17.60;20.40
20610;DHT22;10463;52.378;9.688;2022-12-18T09:28:20;17.60;20.40
20610;DHT22;10463;52.378;9.688;2022-12-18T09:31:07;17.70;20.50
20610;DHT22;10463;52.378;9.688;2022-12-18T09:33:55;17.70;20.50
20610;DHT22;10463;52.378;9.688;2022-12-18T09:36:39;17.80;20.50
20610;DHT22;10463;52.378;9.688;2022-12-18T09:39:24;17.80;20.50
20610;DHT22;10463;52.378;9.688;2022-12-18T09:42:13;17.90;20.70
20610;DHT22;10463;52.378;9.688;2022-12-18T09:45:01;17.90;20.70
20610;DHT22;10463;52.378;9.688;2022-12-18T09:47:48;18.00;20.70
20610;DHT22;10463;52.378;9.688;2022-12-18T09:50:38;18.00;20.70
20610;DHT22;10463;52.378;9.688;2022-12-18T09:53:29;18.00;20.70
20610;DHT22;10463;52.378;9.688;2022-12-18T09:56:19;18.10;20.80
20610;DHT22;10463;52.378;9.688;2022-12-18T09:59:21;18.10;20.80
20610;DHT22;10463;52.378;9.688;2022-12-18T10:02:15;18.20;20.90
20610;DHT22;10463;52.378;9.688;2022-12-18T10:05:05;18.20;20.80
20610;DHT22;10463;52.378;9.688;2022-12-18T10:07:59;18.20;20.80
20610;DHT22;10463;52.378;9.688;2022-12-18T10:10:50;18.30;20.90
20610;DHT22;10463;52.378;9.688;2022-12-18T10:13:40;18.30;20.80
20610;DHT22;10463;52.378;9.688;2022-12-18T10:16:35;18.40;20.90
20610;DHT22;10463;52.378;9.688;2022-12-18T10:19:35;18.40;20.80
20610;DHT22;10463;52.378;9.688;2022-12-18T10:22:39;18.50;20.90
20610;DHT22;10463;52.378;9.688;2022-12-18T10:25:31;18.50;20.90
20610;DHT22;10463;52.378;9.688;2022-12-18T10:28:18;18.50;20.90
20610;DHT22;10463;52.378;9.688;2022-12-18T10:31:06;18.60;21.00
20610;DHT22;10463;52.378;9.688;2022-12-18T10:33:53;18.60;21.00
20610;DHT22;10463;52.378;9.688;2022-12-18T10:36:39;18.70;21.00
20610;DHT22;10463;52.378;9.688;2022-12-18T10:39:24;18.70;21.00
20610;DHT22;10463;52.378;9.688;2022-12-18T10:42:17;18.70;20.90
20610;DHT22;10463;52.378;9.688;2022-12-18T10:45:08;18.70;20.90
20610;DHT22;10463;52.378;9.688;2022-12-18T10:47:53;18.80;20.90
20610;DHT22;10463;52.378;9.688;2022-12-18T10:50:39;18.80;20.90
20610;DHT22;10463;52.378;9.688;2022-12-18T10:53:27;18.80;20.90
20610;DHT22;10463;52.378;9.688;2022-12-18T10:56:12;18.80;20.90
20610;DHT22;10463;52.378;9.688;2022-12-18T10:59:01;18.90;21.00
20610;DHT22;10463;52.378;9.688;2022-12-18T11:01:50;18.90;20.90
20610;DHT22;10463;52.378;9.688;2022-12-18T11:04:50;18.90;20.90
20610;DHT22;10463;52.378;9.688;2022-12-18T11:07:49;19.00;20.90
20610;DHT22;10463;52.378;9.688;2022-12-18T11:10:37;19.00;20.90
20610;DHT22;10463;52.378;9.688;2022-12-18T11:13:26;19.10;20.90
20610;DHT22;10463;52.378;9.688;2022-12-18T11:16:18;19.10;20.90
20610;DHT22;10463;52.378;9.688;2022-12-18T11:19:19;19.20;20.90
20610;DHT22;10463;52.378;9.688;2022-12-18T11:22:20;19.20;20.80
20610;DHT22;10463;52.378;9.688;2022-12-18T11:25:19;19.30;20.90
20610;DHT22;10463;52.378;9.688;2022-12-18T11:28:25;19.30;20.80
20610;DHT22;10463;52.378;9.688;2022-12-18T11:31:22;19.30;20.80
20610;DHT22;10463;52.378;9.688;2022-12-18T11:34:12;19.30;20.80
20610;DHT22;10463;52.378;9.688;2022-12-18T11:37:00;19.40;20.80
20610;DHT22;10463;52.378;9.688;2022-12-18T11:39:52;19.40;20.80
20610;DHT22;10463;52.378;9.688;2022-12-18T11:42:48;19.40;20.70
20610;DHT22;10463;52.378;9.688;2022-12-18T11:45:37;19.40;20.70
20610;DHT22;10463;52.378;9.688;2022-12-18T11:48:27;19.50;20.70
20610;DHT22;10463;52.378;9.688;2022-12-18T11:51:20;19.50;20.60
20610;DHT22;10463;52.378;9.688;2022-12-18T11:54:12;19.50;20.60
20610;DHT22;10463;52.378;9.688;2022-12-18T11:57:07;19.50;20.60
20610;DHT22;10463;52.378;9.688;2022-12-18T12:00:02;19.50;20.60
20610;DHT22;10463;52.378;9.688;2022-12-18T12:03:21;19.60;20.70
20610;DHT22;10463;52.378;9.688;2022-12-18T12:06:14;19.60;20.60
20610;DHT22;10463;52.378;9.688;2022-12-18T12:09:12;19.60;20.60
20610;DHT22;10463;52.378;9.688;2022-12-18T12:12:21;19.60;20.60
20610;DHT22;10463;52.378;9.688;2022-12-18T12:15:21;19.60;20.60
20610;DHT22;10463;52.378;9.688;2022-12-18T12:18:15;19.70;20.60
20610;DHT22;10463;52.378;9.688;2022-12-18T12:21:09;19.70;20.60
20610;DHT22;10463;52.378;9.688;2022-12-18T12:24:05;19.70;20.60
20610;DHT22;10463;52.378;9.688;2022-12-18T12:27:05;19.70;20.60
20610;DHT22;10463;52.378;9.688;2022-12-18T12:30:03;19.70;20.60
20610;DHT22;10463;52.378;9.688;2022-12-18T12:33:14;19.70;20.60
20610;DHT22;10463;52.378;9.688;2022-12-18T12:36:09;19.70;20.60
20610;DHT22;10463;52.378;9.688;2022-12-18T12:39:06;19.80;20.70
20610;DHT22;10463;52.378;9.688;2022-12-18T12:42:00;19.80;20.70
20610;DHT22;10463;52.378;9.688;2022-12-18T12:45:16;19.80;20.70
20610;DHT22;10463;52.378;9.688;2022-12-18T12:48:10;19.80;20.70
20610;DHT22;10463;52.378;9.688;2022-12-18T12:51:11;19.80;20.70
20610;DHT22;10463;52.378;9.688;2022-12-18T12:53:58;19.80;20.70
20610;DHT22;10463;52.378;9.688;2022-12-18T12:56:50;19.80;20.70
20610;DHT22;10463;52.378;9.688;2022-12-18T12:59:48;19.80;20.70
20610;DHT22;10463;52.378;9.688;2022-12-18T13:02:44;19.80;20.70
20610;DHT22;10463;52.378;9.688;2022-12-18T13:05:45;19.90;20.70
20610;DHT22;10463;52.378;9.688;2022-12-18T13:08:54;19.80;20.70
20610;DHT22;10463;52.378;9.688;2022-12-18T13:11:41;19.90;20.70
20610;DHT22;10463;52.378;9.688;2022-12-18T13:14:45;19.90;20.70
20610;DHT22;10463;52.378;9.688;2022-12-18T13:17:30;19.90;20.70
20610;DHT22;10463;52.378;9.688;2022-12-18T13:20:16;19.90;20.70
20610;DHT22;10463;52.378;9.688;2022-12-18T13:23:23;19.90;20.70
20610;DHT22;10463;52.378;9.688;2022-12-18T13:26:33;19.90;20.70
20610;DHT22;10463;52.378;9.688;2022-12-18T13:29:44;19.90;20.80
20610;DHT22;10463;52.378;9.688;2022-12-18T13:32:30;19.90;20.70
20610;DHT22;10463;52.378;9.688;2022-12-18T13:35:42;19.90;20.70
20610;DHT22;10463;52.378;9.688;2022-12-18T13:38:38;19.90;20.80
20610;DHT22;10463;52.378;9.688;2022-12-18T13:41:27;19.90;20.70
20610;DHT22;10463;52.378;9.688;2022-12-18T13:44:24;19.90;20.80
20610;DHT22;10463;52.378;9.688;2022-12-18T13:47:27;19.90;20.80
20610;DHT22;10463;52.378;9.688;2022-12-18T13:50:23;19.90;20.80
20610;DHT22;10463;52.378;9.688;2022-12-18T13:53:18;19.90;20.80
20610;DHT22;10463;52.378;9.688;2022-12-18T13:56:07;19.90;20.80
20610;DHT22;10463;52.378;9.688;2022-12-18T13:59:15;19.90;20.80
20610;DHT22;10463;52.378;9.688;2022-12-18T14:02:09;19.90;20.80
20610;DHT22;10463;52.378;9.688;2022-12-18T14:04:57;19.90;20.80
20610;DHT22;10463;52.378;9.688;2022-12-18T14:07:42;19.90;20.70
20610;DHT22;10463;52.378;9.688;2022-12-18T14:10:28;19.90;20.70
20610;DHT22;10463;52.378;9.688;2022-12-18T14:13:21;19.90;20.70
20610;DHT22;10463;52.378;9.688;2022-12-18T14:16:11;19.90;20.70
20610;DHT22;10463;52.378;9.688;2022-12-18T14:18:58;19.90;20.70
20610;DHT22;10463;52.378;9.688;2022-12-18T14:21:47;19.90;20.60
20610;DHT22;10463;52.378;9.688;2022-12-18T14:24:32;19.90;20.60
20610;DHT22;10463;52.378;9.688;2022-12-18T14:27:24;19.90;20.60
20610;DHT22;10463;52.378;9.688;2022-12-18T14:30:28;19.90;20.60
20610;DHT22;10463;52.378;9.688;2022-12-18T14:33:16;19.90;20.60
20610;DHT22;10463;52.378;9.688;2022-12-18T14:36:05;19.90;20.60
20610;DHT22;10463;52.378;9.688;2022-12-18T14:38:51;19.90;20.60
20610;DHT22;10463;52.378;9.688;2022-12-18T14:41:36;19.90;20.60
20610;DHT22;10463;52.378;9.688;2022-12-18T14:44:21;19.90;20.50
20610;DHT22;10463;52.378;9.688;2022-12-18T14:47:15;19.90;20.50
20610;DHT22;10463;52.378;9.688;2022-12-18T14:50:00;19.90;20.50
20610;DHT22;10463;52.378;9.688;2022-12-18T14:52:44;19.90;20.50
20610;DHT22;10463;52.378;9.688;2022-12-18T14:55:29;19.90;20.50
20610;DHT22;10463;52.378;9.688;2022-12-18T14:58:16;19.90;20.40
20610;DHT22;10463;52.378;9.688;2022-12-18T15:01:02;19.90;20.60
20610;DHT22;10463;52.378;9.688;2022-12-18T15:03:47;19.90;20.40
20610;DHT22;10463;52.378;9.688;2022-12-18T15:06:35;19.90;20.40
20610;DHT22;10463;52.378;9.688;2022-12-18T15:09:24;19.80;20.40
20610;DHT22;10463;52.378;9.688;2022-12-18T15:12:33;19.80;20.30
20610;DHT22;10463;52.378;9.688;2022-12-18T15:15:48;19.80;20.30
20610;DHT22;10463;52.378;9.688;2022-12-18T15:18:35;19.90;20.40
20610;DHT22;10463;52.378;9.688;2022-12-18T15:21:26;19.90;20.40
20610;DHT22;10463;52.378;9.688;2022-12-18T15:24:18;19.80;20.30
20610;DHT22;10463;52.378;9.688;2022-12-18T15:27:30;19.80;20.30
20610;DHT22;10463;52.378;9.688;2022-12-18T15:30:21;19.80;20.30
20610;DHT22;10463;52.378;9.688;2022-12-18T15:33:25;19.80;20.30
20610;DHT22;10463;52.378;9.688;2022-12-18T15:36:12;19.80;20.30
20610;DHT22;10463;52.378;9.688;2022-12-18T15:38:58;19.80;20.30
20610;DHT22;10463;52.378;9.688;2022-12-18T15:41:43;19.80;20.30
20610;DHT22;10463;52.378;9.688;2022-12-18T15:44:49;19.80;20.20
20610;DHT22;10463;52.378;9.688;2022-12-18T15:47:34;19.80;20.20
20610;DHT22;10463;52.378;9.688;2022-12-18T15:50:19;19.80;20.20
20610;DHT22;10463;52.378;9.688;2022-12-18T15:53:03;19.80;20.20
20610;DHT22;10463;52.378;9.688;2022-12-18T15:55:49;19.80;20.20
20610;DHT22;10463;52.378;9.688;2022-12-18T15:58:53;19.80;20.30
20610;DHT22;10463;52.378;9.688;2022-12-18T16:01:38;19.70;20.20
20610;DHT22;10463;52.378;9.688;2022-12-18T16:04:23;19.70;20.10
20610;DHT22;10463;52.378;9.688;2022-12-18T16:07:09;19.70;20.20
20610;DHT22;10463;52.378;9.688;2022-12-18T16:09:54;19.70;20.10
20610;DHT22;10463;52.378;9.688;2022-12-18T16:12:41;19.70;20.10
20610;DHT22;10463;52.378;9.688;2022-12-18T16:15:26;19.70;20.10
20610;DHT22;10463;52.378;9.688;2022-12-18T16:18:10;19.70;20.30
20610;DHT22;10463;52.378;9.688;2022-12-18T16:20:55;19.80;20.10
20610;DHT22;10463;52.378;9.688;2022-12-18T16:23:40;19.80;20.10
20610;DHT22;10463;52.378;9.688;2022-12-18T16:26:24;19.70;20.00
20610;DHT22;10463;52.378;9.688;2022-12-18T16:29:11;19.80;20.00
20610;DHT22;10463;52.378;9.688;2022-12-18T16:31:57;19.70;20.00
20610;DHT22;10463;52.378;9.688;2022-12-18T16:34:43;19.70;20.00
20610;DHT22;10463;52.378;9.688;2022-12-18T16:37:28;19.70;20.00
20610;DHT22;10463;52.378;9.688;2022-12-18T16:40:15;19.70;20.00
20610;DHT22;10463;52.378;9.688;2022-12-18T16:43:00;19.70;20.00
20610;DHT22;10463;52.378;9.688;2022-12-18T16:45:46;19.70;20.00
20610;DHT22;10463;52.378;9.688;2022-12-18T16:48:31;19.70;20.00
20610;DHT22;10463;52.378;9.688;2022-12-18T16:51:17;19.70;20.00
20610;DHT22;10463;52.378;9.688;2022-12-18T16:54:02;19.70;20.00
20610;DHT22;10463;52.378;9.688;2022-12-18T16:56:47;19.70;20.00
20610;DHT22;10463;52.378;9.688;2022-12-18T16:59:35;19.60;19.90
20610;DHT22;10463;52.378;9.688;2022-12-18T17:02:23;19.60;19.90
20610;DHT22;10463;52.378;9.688;2022-12-18T17:05:09;19.60;19.90
20610;DHT22;10463;52.378;9.688;2022-12-18T17:07:56;19.60;19.90
20610;DHT22;10463;52.378;9.688;2022-12-18T17:10:41;19.60;19.90
20610;DHT22;10463;52.378;9.688;2022-12-18T17:13:26;19.60;19.90
20610;DHT22;10463;52.378;9.688;2022-12-18T17:16:11;19.60;19.90
20610;DHT22;10463;52.378;9.688;2022-12-18T17:18:57;19.60;19.90
20610;DHT22;10463;52.378;9.688;2022-12-18T17:21:42;19.60;19.90
20610;DHT22;10463;52.378;9.688;2022-12-18T17:24:26;19.60;19.90
20610;DHT22;10463;52.378;9.688;2022-12-18T17:27:11;19.60;19.90
20610;DHT22;10463;52.378;9.688;2022-12-18T17:29:55;19.60;19.90
20610;DHT22;10463;52.378;9.688;2022-12-18T17:32:40;19.60;19.90
20610;DHT22;10463;52.378;9.688;2022-12-18T17:35:26;19.60;19.90
20610;DHT22;10463;52.378;9.688;2022-12-18T17:38:10;19.60;19.90
20610;DHT22;10463;52.378;9.688;2022-12-18T17:41:00;19.60;19.90
20610;DHT22;10463;52.378;9.688;2022-12-18T17:43:50;19.60;19.90
20610;DHT22;10463;52.378;9.688;2022-12-18T17:46:35;19.60;19.90
20610;DHT22;10463;52.378;9.688;2022-12-18T17:49:20;19.50;19.80